sensor_id;sensor_type;location;lat;lon;timestamp;P1;durP1;ratioP1;P2;durP2;ratioP2
20657;SDS011;10488;50.846;4.078;2023-04-19T00:00:58;37.72;;;25.45;;
20657;SDS011;10488;50.846;4.078;2023-04-19T00:03:25;39.42;;;25.50;;
20657;SDS011;10488;50.846;4.078;2023-04-19T00:05:52;35.65;;;24.88;;
20657;SDS011;10488;50.846;4.078;2023-04-19T00:08:23;33.92;;;24.48;;
20657;SDS011;10488;50.846;4.078;2023-04-19T00:10:49;36.20;;;25.23;;
20657;SDS011;10488;50.846;4.078;2023-04-19T00:13:15;36.22;;;25.77;;
20657;SDS011;10488;50.846;4.078;2023-04-19T00:15:41;36.40;;;24.80;;
20657;SDS011;10488;50.846;4.078;2023-04-19T00:18:07;41.13;;;25.60;;
20657;SDS011;10488;50.846;4.078;2023-04-19T00:20:32;38.60;;;25.88;;
20657;SDS011;10488;50.846;4.078;2023-04-19T00:22:58;34.63;;;25.42;;
20657;SDS011;10488;50.846;4.078;2023-04-19T00:25:24;36.85;;;26.25;;
20657;SDS011;10488;50.846;4.078;2023-04-19T00:27:50;37.03;;;26.38;;
20657;SDS011;10488;50.846;4.078;2023-04-19T00:30:16;38.33;;;25.65;;
20657;SDS011;10488;50.846;4.078;2023-04-19T00:32:41;36.08;;;25.95;;
20657;SDS011;10488;50.846;4.078;2023-04-19T00:35:07;38.67;;;26.50;;
20657;SDS011;10488;50.846;4.078;2023-04-19T00:37:33;37.28;;;26.02;;
20657;SDS011;10488;50.846;4.078;2023-04-19T00:39:58;39.08;;;26.50;;
20657;SDS011;10488;50.846;4.078;2023-04-19T00:42:24;40.85;;;26.63;;
20657;SDS011;10488;50.846;4.078;2023-04-19T00:44:50;40.85;;;25.83;;
20657;SDS011;10488;50.846;4.078;2023-04-19T00:47:15;38.17;;;26.33;;
20657;SDS011;10488;50.846;4.078;2023-04-19T00:49:41;39.90;;;27.27;;
20657;SDS011;10488;50.846;4.078;2023-04-19T00:52:08;39.03;;;26.40;;
20657;SDS011;10488;50.846;4.078;2023-04-19T00:54:34;39.47;;;27.65;;
20657;SDS011;10488;50.846;4.078;2023-04-19T00:57:01;41.90;;;26.83;;
20657;SDS011;10488;50.846;4.078;2023-04-19T00:59:26;40.85;;;27.33;;
20657;SDS011;10488;50.846;4.078;2023-04-19T01:01:53;40.35;;;27.75;;
20657;SDS011;10488;50.846;4.078;2023-04-19T01:04:18;40.33;;;27.52;;
20657;SDS011;10488;50.846;4.078;2023-04-19T01:06:44;41.28;;;27.00;;
20657;SDS011;10488;50.846;4.078;2023-04-19T01:09:10;42.42;;;27.65;;
20657;SDS011;10488;50.846;4.078;2023-04-19T01:11:35;43.72;;;27.75;;
20657;SDS011;10488;50.846;4.078;2023-04-19T01:14:01;41.45;;;28.20;;
20657;SDS011;10488;50.846;4.078;2023-04-19T01:16:27;42.33;;;27.02;;
20657;SDS011;10488;50.846;4.078;2023-04-19T01:18:53;44.13;;;28.58;;
20657;SDS011;10488;50.846;4.078;2023-04-19T01:21:18;43.67;;;27.98;;
20657;SDS011;10488;50.846;4.078;2023-04-19T01:23:46;42.13;;;27.50;;
20657;SDS011;10488;50.846;4.078;2023-04-19T01:26:12;47.35;;;29.13;;
20657;SDS011;10488;50.846;4.078;2023-04-19T01:28:37;42.13;;;28.70;;
20657;SDS011;10488;50.846;4.078;2023-04-19T01:31:03;46.85;;;28.08;;
20657;SDS011;10488;50.846;4.078;2023-04-19T01:33:29;45.35;;;29.67;;
20657;SDS011;10488;50.846;4.078;2023-04-19T01:35:54;42.05;;;29.27;;
20657;SDS011;10488;50.846;4.078;2023-04-19T01:38:20;41.50;;;27.65;;
20657;SDS011;10488;50.846;4.078;2023-04-19T01:40:46;46.92;;;29.10;;
20657;SDS011;10488;50.846;4.078;2023-04-19T01:43:12;42.10;;;27.55;;
20657;SDS011;10488;50.846;4.078;2023-04-19T01:45:38;43.15;;;28.63;;
20657;SDS011;10488;50.846;4.078;2023-04-19T01:48:04;43.10;;;27.67;;
20657;SDS011;10488;50.846;4.078;2023-04-19T01:50:30;47.08;;;29.65;;
20657;SDS011;10488;50.846;4.078;2023-04-19T01:52:57;43.60;;;28.30;;
20657;SDS011;10488;50.846;4.078;2023-04-19T01:55:23;39.70;;;26.50;;
20657;SDS011;10488;50.846;4.078;2023-04-19T01:57:49;45.70;;;29.38;;
20657;SDS011;10488;50.846;4.078;2023-04-19T02:00:17;45.45;;;28.92;;
20657;SDS011;10488;50.846;4.078;2023-04-19T02:02:42;44.90;;;29.73;;
20657;SDS011;10488;50.846;4.078;2023-04-19T02:05:08;46.10;;;29.00;;
20657;SDS011;10488;50.846;4.078;2023-04-19T02:07:35;44.65;;;29.10;;
20657;SDS011;10488;50.846;4.078;2023-04-19T02:10:01;45.75;;;29.88;;
20657;SDS011;10488;50.846;4.078;2023-04-19T02:12:27;50.60;;;31.20;;
20657;SDS011;10488;50.846;4.078;2023-04-19T02:14:53;46.63;;;31.23;;
20657;SDS011;10488;50.846;4.078;2023-04-19T02:17:24;46.50;;;29.05;;
20657;SDS011;10488;50.846;4.078;2023-04-19T02:19:50;46.45;;;30.25;;
20657;SDS011;10488;50.846;4.078;2023-04-19T02:22:17;46.45;;;29.75;;
20657;SDS011;10488;50.846;4.078;2023-04-19T02:24:43;47.58;;;30.30;;
20657;SDS011;10488;50.846;4.078;2023-04-19T02:27:09;44.30;;;29.27;;
20657;SDS011;10488;50.846;4.078;2023-04-19T02:29:36;46.75;;;29.00;;
20657;SDS011;10488;50.846;4.078;2023-04-19T02:32:02;46.80;;;30.67;;
20657;SDS011;10488;50.846;4.078;2023-04-19T02:34:30;47.83;;;29.77;;
20657;SDS011;10488;50.846;4.078;2023-04-19T02:36:56;47.95;;;30.77;;
20657;SDS011;10488;50.846;4.078;2023-04-19T02:39:22;50.20;;;31.65;;
20657;SDS011;10488;50.846;4.078;2023-04-19T02:41:47;50.75;;;32.85;;
20657;SDS011;10488;50.846;4.078;2023-04-19T02:44:13;49.25;;;32.33;;
20657;SDS011;10488;50.846;4.078;2023-04-19T02:46:39;51.20;;;30.92;;
20657;SDS011;10488;50.846;4.078;2023-04-19T02:49:05;48.70;;;30.92;;
20657;SDS011;10488;50.846;4.078;2023-04-19T02:51:30;46.42;;;29.92;;
20657;SDS011;10488;50.846;4.078;2023-04-19T02:53:56;52.00;;;31.67;;
20657;SDS011;10488;50.846;4.078;2023-04-19T02:56:22;45.28;;;30.40;;
20657;SDS011;10488;50.846;4.078;2023-04-19T02:58:47;52.10;;;31.45;;
20657;SDS011;10488;50.846;4.078;2023-04-19T03:01:13;52.67;;;30.80;;
20657;SDS011;10488;50.846;4.078;2023-04-19T03:03:39;43.70;;;29.15;;
20657;SDS011;10488;50.846;4.078;2023-04-19T03:06:04;45.85;;;28.58;;
20657;SDS011;10488;50.846;4.078;2023-04-19T03:08:30;44.90;;;28.30;;
20657;SDS011;10488;50.846;4.078;2023-04-19T03:10:57;41.88;;;27.23;;
20657;SDS011;10488;50.846;4.078;2023-04-19T03:13:22;44.28;;;27.88;;
20657;SDS011;10488;50.846;4.078;2023-04-19T03:15:49;44.28;;;29.40;;
20657;SDS011;10488;50.846;4.078;2023-04-19T03:18:15;45.85;;;29.40;;
20657;SDS011;10488;50.846;4.078;2023-04-19T03:20:41;44.20;;;29.33;;
20657;SDS011;10488;50.846;4.078;2023-04-19T03:23:07;43.60;;;27.52;;
20657;SDS011;10488;50.846;4.078;2023-04-19T03:25:33;44.78;;;27.23;;
20657;SDS011;10488;50.846;4.078;2023-04-19T03:27:58;42.63;;;27.33;;
20657;SDS011;10488;50.846;4.078;2023-04-19T03:30:24;43.20;;;28.35;;
20657;SDS011;10488;50.846;4.078;2023-04-19T03:32:50;40.70;;;27.95;;
20657;SDS011;10488;50.846;4.078;2023-04-19T03:35:16;39.83;;;27.15;;
20657;SDS011;10488;50.846;4.078;2023-04-19T03:37:42;41.25;;;28.42;;
20657;SDS011;10488;50.846;4.078;2023-04-19T03:40:08;41.50;;;26.50;;
20657;SDS011;10488;50.846;4.078;2023-04-19T03:42:34;39.85;;;27.77;;
20657;SDS011;10488;50.846;4.078;2023-04-19T03:44:59;40.78;;;27.33;;
20657;SDS011;10488;50.846;4.078;2023-04-19T03:47:25;38.35;;;26.77;;
20657;SDS011;10488;50.846;4.078;2023-04-19T03:49:51;42.00;;;27.27;;
20657;SDS011;10488;50.846;4.078;2023-04-19T03:52:16;40.17;;;27.27;;
20657;SDS011;10488;50.846;4.078;2023-04-19T03:54:42;39.70;;;25.85;;
20657;SDS011;10488;50.846;4.078;2023-04-19T03:57:08;41.22;;;28.35;;
20657;SDS011;10488;50.846;4.078;2023-04-19T03:59:37;40.13;;;27.25;;
20657;SDS011;10488;50.846;4.078;2023-04-19T04:02:02;37.60;;;26.10;;
20657;SDS011;10488;50.846;4.078;2023-04-19T04:04:28;38.10;;;25.23;;
20657;SDS011;10488;50.846;4.078;2023-04-19T04:06:54;46.00;;;27.98;;
20657;SDS011;10488;50.846;4.078;2023-04-19T04:09:19;39.92;;;27.10;;
20657;SDS011;10488;50.846;4.078;2023-04-19T04:11:45;44.15;;;28.58;;
20657;SDS011;10488;50.846;4.078;2023-04-19T04:14:11;43.40;;;26.77;;
20657;SDS011;10488;50.846;4.078;2023-04-19T04:16:36;41.65;;;27.05;;
20657;SDS011;10488;50.846;4.078;2023-04-19T04:19:02;45.45;;;27.48;;
20657;SDS011;10488;50.846;4.078;2023-04-19T04:21:27;41.83;;;27.92;;
20657;SDS011;10488;50.846;4.078;2023-04-19T04:23:53;42.08;;;27.25;;
20657;SDS011;10488;50.846;4.078;2023-04-19T04:26:19;39.75;;;26.10;;
20657;SDS011;10488;50.846;4.078;2023-04-19T04:28:45;44.50;;;27.08;;
20657;SDS011;10488;50.846;4.078;2023-04-19T04:31:11;43.58;;;28.63;;
20657;SDS011;10488;50.846;4.078;2023-04-19T04:33:37;41.55;;;27.35;;
20657;SDS011;10488;50.846;4.078;2023-04-19T04:36:02;45.17;;;28.23;;
20657;SDS011;10488;50.846;4.078;2023-04-19T04:38:29;43.30;;;28.13;;
20657;SDS011;10488;50.846;4.078;2023-04-19T04:40:55;49.08;;;29.13;;
20657;SDS011;10488;50.846;4.078;2023-04-19T04:43:22;41.83;;;27.90;;
20657;SDS011;10488;50.846;4.078;2023-04-19T04:45:48;46.88;;;27.50;;
20657;SDS011;10488;50.846;4.078;2023-04-19T04:48:14;45.58;;;27.98;;
20657;SDS011;10488;50.846;4.078;2023-04-19T04:50:40;46.05;;;28.23;;
20657;SDS011;10488;50.846;4.078;2023-04-19T04:53:06;47.10;;;29.05;;
20657;SDS011;10488;50.846;4.078;2023-04-19T04:55:32;45.35;;;28.02;;
20657;SDS011;10488;50.846;4.078;2023-04-19T04:57:58;43.78;;;28.67;;
20657;SDS011;10488;50.846;4.078;2023-04-19T05:00:24;47.05;;;28.60;;
20657;SDS011;10488;50.846;4.078;2023-04-19T05:02:50;46.05;;;29.10;;
20657;SDS011;10488;50.846;4.078;2023-04-19T05:05:15;42.78;;;28.17;;
20657;SDS011;10488;50.846;4.078;2023-04-19T05:07:41;48.05;;;29.92;;
20657;SDS011;10488;50.846;4.078;2023-04-19T05:10:07;43.28;;;29.23;;
20657;SDS011;10488;50.846;4.078;2023-04-19T05:12:33;45.15;;;27.52;;
20657;SDS011;10488;50.846;4.078;2023-04-19T05:14:58;44.38;;;28.38;;
20657;SDS011;10488;50.846;4.078;2023-04-19T05:17:24;44.03;;;28.92;;
20657;SDS011;10488;50.846;4.078;2023-04-19T05:19:49;43.88;;;29.13;;
20657;SDS011;10488;50.846;4.078;2023-04-19T05:22:15;41.20;;;27.58;;
20657;SDS011;10488;50.846;4.078;2023-04-19T05:24:41;40.60;;;27.73;;
20657;SDS011;10488;50.846;4.078;2023-04-19T05:27:07;42.05;;;26.95;;
20657;SDS011;10488;50.846;4.078;2023-04-19T05:29:33;40.78;;;25.92;;
20657;SDS011;10488;50.846;4.078;2023-04-19T05:31:59;46.22;;;26.65;;
20657;SDS011;10488;50.846;4.078;2023-04-19T05:34:25;39.42;;;25.95;;
20657;SDS011;10488;50.846;4.078;2023-04-19T05:36:50;41.03;;;25.42;;
20657;SDS011;10488;50.846;4.078;2023-04-19T05:39:16;35.97;;;24.20;;
20657;SDS011;10488;50.846;4.078;2023-04-19T05:41:42;31.95;;;22.08;;
20657;SDS011;10488;50.846;4.078;2023-04-19T05:44:07;30.65;;;20.63;;
20657;SDS011;10488;50.846;4.078;2023-04-19T05:46:33;29.40;;;20.38;;
20657;SDS011;10488;50.846;4.078;2023-04-19T05:49:00;27.60;;;18.95;;
20657;SDS011;10488;50.846;4.078;2023-04-19T05:51:28;30.23;;;22.25;;
20657;SDS011;10488;50.846;4.078;2023-04-19T05:53:53;26.02;;;20.35;;
20657;SDS011;10488;50.846;4.078;2023-04-19T05:56:19;25.02;;;18.10;;
20657;SDS011;10488;50.846;4.078;2023-04-19T05:58:45;31.98;;;23.60;;
20657;SDS011;10488;50.846;4.078;2023-04-19T06:01:10;30.02;;;23.85;;
20657;SDS011;10488;50.846;4.078;2023-04-19T06:03:36;27.10;;;19.88;;
20657;SDS011;10488;50.846;4.078;2023-04-19T06:06:02;29.30;;;19.67;;
20657;SDS011;10488;50.846;4.078;2023-04-19T06:08:28;26.95;;;19.40;;
20657;SDS011;10488;50.846;4.078;2023-04-19T06:10:53;23.30;;;18.67;;
20657;SDS011;10488;50.846;4.078;2023-04-19T06:13:20;24.58;;;19.88;;
20657;SDS011;10488;50.846;4.078;2023-04-19T06:15:46;22.40;;;18.20;;
20657;SDS011;10488;50.846;4.078;2023-04-19T06:18:12;29.38;;;19.02;;
20657;SDS011;10488;50.846;4.078;2023-04-19T06:20:38;27.73;;;18.33;;
20657;SDS011;10488;50.846;4.078;2023-04-19T06:23:04;25.83;;;18.20;;
20657;SDS011;10488;50.846;4.078;2023-04-19T06:25:31;26.95;;;18.55;;
20657;SDS011;10488;50.846;4.078;2023-04-19T06:27:57;21.92;;;18.60;;
20657;SDS011;10488;50.846;4.078;2023-04-19T06:30:22;23.85;;;18.67;;
20657;SDS011;10488;50.846;4.078;2023-04-19T06:32:48;24.00;;;18.70;;
20657;SDS011;10488;50.846;4.078;2023-04-19T06:35:13;22.75;;;16.77;;
20657;SDS011;10488;50.846;4.078;2023-04-19T06:37:39;27.58;;;18.15;;
20657;SDS011;10488;50.846;4.078;2023-04-19T06:40:05;23.58;;;17.45;;
20657;SDS011;10488;50.846;4.078;2023-04-19T06:42:35;22.63;;;16.95;;
20657;SDS011;10488;50.846;4.078;2023-04-19T06:45:01;23.30;;;16.90;;
20657;SDS011;10488;50.846;4.078;2023-04-19T06:47:28;26.30;;;18.98;;
20657;SDS011;10488;50.846;4.078;2023-04-19T06:49:54;20.08;;;17.13;;
20657;SDS011;10488;50.846;4.078;2023-04-19T06:52:20;24.55;;;16.33;;
20657;SDS011;10488;50.846;4.078;2023-04-19T06:54:49;25.83;;;17.70;;
20657;SDS011;10488;50.846;4.078;2023-04-19T06:57:16;24.08;;;16.23;;
20657;SDS011;10488;50.846;4.078;2023-04-19T06:59:42;25.00;;;17.65;;
20657;SDS011;10488;50.846;4.078;2023-04-19T07:02:08;24.70;;;17.42;;
20657;SDS011;10488;50.846;4.078;2023-04-19T07:04:34;20.77;;;15.85;;
20657;SDS011;10488;50.846;4.078;2023-04-19T07:07:01;21.42;;;16.88;;
20657;SDS011;10488;50.846;4.078;2023-04-19T07:09:27;20.85;;;16.30;;
20657;SDS011;10488;50.846;4.078;2023-04-19T07:11:53;21.38;;;16.52;;
20657;SDS011;10488;50.846;4.078;2023-04-19T07:14:18;18.35;;;14.85;;
20657;SDS011;10488;50.846;4.078;2023-04-19T07:16:44;21.00;;;15.05;;
20657;SDS011;10488;50.846;4.078;2023-04-19T07:19:11;21.80;;;14.80;;
20657;SDS011;10488;50.846;4.078;2023-04-19T07:21:37;21.45;;;15.02;;
20657;SDS011;10488;50.846;4.078;2023-04-19T07:24:04;18.00;;;14.07;;
20657;SDS011;10488;50.846;4.078;2023-04-19T07:26:31;16.70;;;14.15;;
20657;SDS011;10488;50.846;4.078;2023-04-19T07:28:57;17.42;;;13.57;;
20657;SDS011;10488;50.846;4.078;2023-04-19T07:31:23;16.20;;;12.57;;
20657;SDS011;10488;50.846;4.078;2023-04-19T07:33:49;20.55;;;14.18;;
20657;SDS011;10488;50.846;4.078;2023-04-19T07:36:15;16.85;;;12.80;;
20657;SDS011;10488;50.846;4.078;2023-04-19T07:38:41;20.48;;;13.07;;
20657;SDS011;10488;50.846;4.078;2023-04-19T07:41:07;19.65;;;12.88;;
20657;SDS011;10488;50.846;4.078;2023-04-19T07:43:33;17.05;;;13.05;;
20657;SDS011;10488;50.846;4.078;2023-04-19T07:45:59;18.70;;;13.23;;
20657;SDS011;10488;50.846;4.078;2023-04-19T07:48:25;18.20;;;14.27;;
20657;SDS011;10488;50.846;4.078;2023-04-19T07:50:51;18.00;;;13.45;;
20657;SDS011;10488;50.846;4.078;2023-04-19T07:53:16;26.83;;;16.05;;
20657;SDS011;10488;50.846;4.078;2023-04-19T07:55:42;17.55;;;13.25;;
20657;SDS011;10488;50.846;4.078;2023-04-19T07:58:09;23.90;;;17.23;;
20657;SDS011;10488;50.846;4.078;2023-04-19T08:00:35;16.92;;;12.40;;
20657;SDS011;10488;50.846;4.078;2023-04-19T08:03:02;18.63;;;14.52;;
20657;SDS011;10488;50.846;4.078;2023-04-19T08:05:28;17.30;;;13.40;;
20657;SDS011;10488;50.846;4.078;2023-04-19T08:07:54;15.80;;;12.48;;
20657;SDS011;10488;50.846;4.078;2023-04-19T08:10:20;17.45;;;12.63;;
20657;SDS011;10488;50.846;4.078;2023-04-19T08:12:46;19.88;;;13.00;;
20657;SDS011;10488;50.846;4.078;2023-04-19T08:15:13;17.35;;;12.70;;
20657;SDS011;10488;50.846;4.078;2023-04-19T08:17:40;19.85;;;13.32;;
20657;SDS011;10488;50.846;4.078;2023-04-19T08:20:08;15.52;;;12.68;;
20657;SDS011;10488;50.846;4.078;2023-04-19T08:22:36;14.20;;;12.20;;
20657;SDS011;10488;50.846;4.078;2023-04-19T08:25:03;17.20;;;12.43;;
20657;SDS011;10488;50.846;4.078;2023-04-19T08:27:29;18.35;;;12.32;;
20657;SDS011;10488;50.846;4.078;2023-04-19T08:29:54;14.85;;;11.18;;
20657;SDS011;10488;50.846;4.078;2023-04-19T08:32:20;18.00;;;12.73;;
20657;SDS011;10488;50.846;4.078;2023-04-19T08:34:46;19.98;;;12.82;;
20657;SDS011;10488;50.846;4.078;2023-04-19T08:37:12;16.45;;;11.95;;
20657;SDS011;10488;50.846;4.078;2023-04-19T08:39:37;21.65;;;12.27;;
20657;SDS011;10488;50.846;4.078;2023-04-19T08:42:04;18.67;;;12.30;;
20657;SDS011;10488;50.846;4.078;2023-04-19T08:44:31;26.83;;;19.73;;
20657;SDS011;10488;50.846;4.078;2023-04-19T08:46:58;39.50;;;24.50;;
20657;SDS011;10488;50.846;4.078;2023-04-19T08:49:26;19.30;;;14.13;;
20657;SDS011;10488;50.846;4.078;2023-04-19T08:51:52;17.13;;;11.45;;
20657;SDS011;10488;50.846;4.078;2023-04-19T08:54:21;22.15;;;16.15;;
20657;SDS011;10488;50.846;4.078;2023-04-19T08:56:48;18.20;;;12.50;;
20657;SDS011;10488;50.846;4.078;2023-04-19T08:59:14;20.67;;;11.77;;
20657;SDS011;10488;50.846;4.078;2023-04-19T09:01:39;14.60;;;11.88;;
20657;SDS011;10488;50.846;4.078;2023-04-19T09:04:05;20.40;;;13.40;;
20657;SDS011;10488;50.846;4.078;2023-04-19T09:06:38;18.65;;;13.40;;
20657;SDS011;10488;50.846;4.078;2023-04-19T09:09:14;16.35;;;11.40;;
20657;SDS011;10488;50.846;4.078;2023-04-19T09:11:41;18.40;;;12.32;;
20657;SDS011;10488;50.846;4.078;2023-04-19T09:14:07;17.38;;;11.50;;
20657;SDS011;10488;50.846;4.078;2023-04-19T09:16:34;17.30;;;12.20;;
20657;SDS011;10488;50.846;4.078;2023-04-19T09:19:01;14.98;;;12.55;;
20657;SDS011;10488;50.846;4.078;2023-04-19T09:21:30;15.27;;;12.30;;
20657;SDS011;10488;50.846;4.078;2023-04-19T09:23:57;15.77;;;12.05;;
20657;SDS011;10488;50.846;4.078;2023-04-19T09:26:23;13.13;;;11.35;;
20657;SDS011;10488;50.846;4.078;2023-04-19T09:29:06;13.88;;;10.95;;
20657;SDS011;10488;50.846;4.078;2023-04-19T09:31:35;14.32;;;11.25;;
20657;SDS011;10488;50.846;4.078;2023-04-19T09:34:17;16.33;;;10.93;;
20657;SDS011;10488;50.846;4.078;2023-04-19T09:36:43;15.35;;;12.02;;
20657;SDS011;10488;50.846;4.078;2023-04-19T09:39:09;14.65;;;11.15;;
20657;SDS011;10488;50.846;4.078;2023-04-19T09:41:53;13.07;;;11.30;;
20657;SDS011;10488;50.846;4.078;2023-04-19T09:44:19;14.48;;;10.93;;
20657;SDS011;10488;50.846;4.078;2023-04-19T09:46:45;16.95;;;10.00;;
20657;SDS011;10488;50.846;4.078;2023-04-19T09:51:44;14.18;;;10.98;;
20657;SDS011;10488;50.846;4.078;2023-04-19T09:54:12;13.60;;;9.05;;
20657;SDS011;10488;50.846;4.078;2023-04-19T09:56:38;13.82;;;11.48;;
20657;SDS011;10488;50.846;4.078;2023-04-19T09:59:04;17.80;;;12.65;;
20657;SDS011;10488;50.846;4.078;2023-04-19T10:01:37;12.05;;;9.68;;
20657;SDS011;10488;50.846;4.078;2023-04-19T10:04:10;12.18;;;9.43;;
20657;SDS011;10488;50.846;4.078;2023-04-19T10:06:45;13.10;;;9.55;;
20657;SDS011;10488;50.846;4.078;2023-04-19T10:09:19;10.90;;;9.45;;
20657;SDS011;10488;50.846;4.078;2023-04-19T10:11:49;12.98;;;9.20;;
20657;SDS011;10488;50.846;4.078;2023-04-19T10:14:21;11.73;;;10.13;;
20657;SDS011;10488;50.846;4.078;2023-04-19T10:16:51;15.63;;;10.35;;
20657;SDS011;10488;50.846;4.078;2023-04-19T10:19:18;17.83;;;11.90;;
20657;SDS011;10488;50.846;4.078;2023-04-19T10:21:45;13.88;;;11.05;;
20657;SDS011;10488;50.846;4.078;2023-04-19T10:24:15;12.48;;;9.80;;
20657;SDS011;10488;50.846;4.078;2023-04-19T10:32:15;10.77;;;8.85;;
20657;SDS011;10488;50.846;4.078;2023-04-19T10:34:41;9.55;;;8.38;;
20657;SDS011;10488;50.846;4.078;2023-04-19T10:37:10;13.18;;;10.43;;
20657;SDS011;10488;50.846;4.078;2023-04-19T10:39:39;9.70;;;8.10;;
20657;SDS011;10488;50.846;4.078;2023-04-19T10:42:08;12.77;;;8.30;;
20657;SDS011;10488;50.846;4.078;2023-04-19T10:44:34;10.02;;;8.05;;
20657;SDS011;10488;50.846;4.078;2023-04-19T10:47:00;15.60;;;8.15;;
20657;SDS011;10488;50.846;4.078;2023-04-19T10:49:29;8.40;;;7.53;;
20657;SDS011;10488;50.846;4.078;2023-04-19T10:51:55;11.25;;;8.13;;
20657;SDS011;10488;50.846;4.078;2023-04-19T10:54:27;9.07;;;6.90;;
20657;SDS011;10488;50.846;4.078;2023-04-19T10:57:05;10.00;;;7.70;;
20657;SDS011;10488;50.846;4.078;2023-04-19T10:59:34;12.75;;;8.00;;
20657;SDS011;10488;50.846;4.078;2023-04-19T11:07:17;10.80;;;8.60;;
20657;SDS011;10488;50.846;4.078;2023-04-19T11:09:45;10.07;;;8.60;;
20657;SDS011;10488;50.846;4.078;2023-04-19T11:12:15;10.50;;;8.35;;
20657;SDS011;10488;50.846;4.078;2023-04-19T11:14:42;10.73;;;7.68;;
20657;SDS011;10488;50.846;4.078;2023-04-19T11:17:21;12.32;;;9.82;;
20657;SDS011;10488;50.846;4.078;2023-04-19T11:19:59;9.23;;;7.50;;
20657;SDS011;10488;50.846;4.078;2023-04-19T11:22:32;12.40;;;8.18;;
20657;SDS011;10488;50.846;4.078;2023-04-19T11:25:09;10.07;;;7.72;;
20657;SDS011;10488;50.846;4.078;2023-04-19T11:27:58;10.65;;;9.05;;
20657;SDS011;10488;50.846;4.078;2023-04-19T11:30:28;13.02;;;8.50;;
20657;SDS011;10488;50.846;4.078;2023-04-19T11:32:55;10.40;;;8.27;;
20657;SDS011;10488;50.846;4.078;2023-04-19T11:37:48;9.98;;;7.60;;
20657;SDS011;10488;50.846;4.078;2023-04-19T11:40:15;11.93;;;7.70;;
20657;SDS011;10488;50.846;4.078;2023-04-19T11:42:42;13.63;;;11.02;;
20657;SDS011;10488;50.846;4.078;2023-04-19T11:45:09;11.95;;;7.43;;
20657;SDS011;10488;50.846;4.078;2023-04-19T11:47:48;14.73;;;8.23;;
20657;SDS011;10488;50.846;4.078;2023-04-19T11:53:01;7.72;;;6.20;;
20657;SDS011;10488;50.846;4.078;2023-04-19T11:55:48;11.27;;;8.23;;
20657;SDS011;10488;50.846;4.078;2023-04-19T11:58:27;10.13;;;7.80;;
20657;SDS011;10488;50.846;4.078;2023-04-19T12:00:57;9.82;;;7.13;;
20657;SDS011;10488;50.846;4.078;2023-04-19T12:03:32;8.70;;;6.20;;
20657;SDS011;10488;50.846;4.078;2023-04-19T12:05:59;8.25;;;7.30;;
20657;SDS011;10488;50.846;4.078;2023-04-19T12:11:03;10.82;;;7.45;;
20657;SDS011;10488;50.846;4.078;2023-04-19T12:13:30;11.48;;;7.57;;
20657;SDS011;10488;50.846;4.078;2023-04-19T12:15:57;14.15;;;7.75;;
20657;SDS011;10488;50.846;4.078;2023-04-19T12:18:23;11.02;;;8.05;;
20657;SDS011;10488;50.846;4.078;2023-04-19T12:20:49;10.40;;;7.63;;
20657;SDS011;10488;50.846;4.078;2023-04-19T12:23:16;10.45;;;8.25;;
20657;SDS011;10488;50.846;4.078;2023-04-19T12:25:44;13.68;;;8.50;;
20657;SDS011;10488;50.846;4.078;2023-04-19T12:28:11;12.38;;;8.98;;
20657;SDS011;10488;50.846;4.078;2023-04-19T12:30:38;15.95;;;10.15;;
20657;SDS011;10488;50.846;4.078;2023-04-19T12:33:04;11.68;;;8.13;;
20657;SDS011;10488;50.846;4.078;2023-04-19T12:35:31;10.85;;;8.77;;
20657;SDS011;10488;50.846;4.078;2023-04-19T12:37:58;13.93;;;8.50;;
20657;SDS011;10488;50.846;4.078;2023-04-19T12:40:24;14.38;;;10.05;;
20657;SDS011;10488;50.846;4.078;2023-04-19T12:42:51;11.20;;;8.57;;
20657;SDS011;10488;50.846;4.078;2023-04-19T12:45:17;15.07;;;8.80;;
20657;SDS011;10488;50.846;4.078;2023-04-19T12:47:44;10.35;;;8.15;;
20657;SDS011;10488;50.846;4.078;2023-04-19T12:50:11;9.75;;;7.40;;
20657;SDS011;10488;50.846;4.078;2023-04-19T12:52:37;11.02;;;6.65;;
20657;SDS011;10488;50.846;4.078;2023-04-19T12:55:04;12.20;;;7.15;;
20657;SDS011;10488;50.846;4.078;2023-04-19T12:57:30;10.13;;;6.80;;
20657;SDS011;10488;50.846;4.078;2023-04-19T12:59:56;9.27;;;6.75;;
20657;SDS011;10488;50.846;4.078;2023-04-19T13:02:22;8.80;;;6.40;;
20657;SDS011;10488;50.846;4.078;2023-04-19T13:04:47;9.18;;;6.28;;
20657;SDS011;10488;50.846;4.078;2023-04-19T13:07:13;8.60;;;5.75;;
20657;SDS011;10488;50.846;4.078;2023-04-19T13:09:39;12.27;;;6.25;;
20657;SDS011;10488;50.846;4.078;2023-04-19T13:12:04;9.88;;;6.38;;
20657;SDS011;10488;50.846;4.078;2023-04-19T13:14:30;12.40;;;8.80;;
20657;SDS011;10488;50.846;4.078;2023-04-19T13:16:56;9.50;;;6.72;;
20657;SDS011;10488;50.846;4.078;2023-04-19T13:19:22;10.75;;;6.03;;
20657;SDS011;10488;50.846;4.078;2023-04-19T13:21:48;9.57;;;6.15;;
20657;SDS011;10488;50.846;4.078;2023-04-19T13:24:13;8.73;;;6.38;;
20657;SDS011;10488;50.846;4.078;2023-04-19T13:26:39;8.98;;;5.50;;
20657;SDS011;10488;50.846;4.078;2023-04-19T13:29:05;12.90;;;7.55;;
20657;SDS011;10488;50.846;4.078;2023-04-19T13:31:32;12.27;;;6.38;;
20657;SDS011;10488;50.846;4.078;2023-04-19T13:33:58;8.15;;;6.00;;
20657;SDS011;10488;50.846;4.078;2023-04-19T13:36:25;8.32;;;5.65;;
20657;SDS011;10488;50.846;4.078;2023-04-19T13:38:51;11.25;;;5.53;;
20657;SDS011;10488;50.846;4.078;2023-04-19T13:41:18;6.75;;;4.93;;
20657;SDS011;10488;50.846;4.078;2023-04-19T13:43:44;8.32;;;5.18;;
20657;SDS011;10488;50.846;4.078;2023-04-19T13:46:09;6.80;;;4.63;;
20657;SDS011;10488;50.846;4.078;2023-04-19T13:48:35;11.02;;;7.65;;
20657;SDS011;10488;50.846;4.078;2023-04-19T13:51:01;5.20;;;4.68;;
20657;SDS011;10488;50.846;4.078;2023-04-19T13:53:26;5.63;;;4.25;;
20657;SDS011;10488;50.846;4.078;2023-04-19T13:55:53;7.57;;;4.18;;
20657;SDS011;10488;50.846;4.078;2023-04-19T13:58:19;7.32;;;4.22;;
20657;SDS011;10488;50.846;4.078;2023-04-19T14:00:45;6.93;;;4.05;;
20657;SDS011;10488;50.846;4.078;2023-04-19T14:03:12;8.00;;;4.07;;
20657;SDS011;10488;50.846;4.078;2023-04-19T14:05:37;14.25;;;7.47;;
20657;SDS011;10488;50.846;4.078;2023-04-19T14:08:03;9.30;;;5.03;;
20657;SDS011;10488;50.846;4.078;2023-04-19T14:10:29;10.13;;;4.20;;
20657;SDS011;10488;50.846;4.078;2023-04-19T14:12:55;13.52;;;7.50;;
20657;SDS011;10488;50.846;4.078;2023-04-19T14:15:21;6.68;;;4.75;;
20657;SDS011;10488;50.846;4.078;2023-04-19T14:17:48;3.95;;;3.30;;
20657;SDS011;10488;50.846;4.078;2023-04-19T14:20:15;7.18;;;4.00;;
20657;SDS011;10488;50.846;4.078;2023-04-19T14:22:41;19.10;;;11.05;;
20657;SDS011;10488;50.846;4.078;2023-04-19T14:25:07;4.10;;;3.22;;
20657;SDS011;10488;50.846;4.078;2023-04-19T14:27:33;3.47;;;3.05;;
20657;SDS011;10488;50.846;4.078;2023-04-19T14:29:59;4.55;;;3.97;;
20657;SDS011;10488;50.846;4.078;2023-04-19T14:32:25;4.85;;;3.00;;
20657;SDS011;10488;50.846;4.078;2023-04-19T14:34:51;4.90;;;3.90;;
20657;SDS011;10488;50.846;4.078;2023-04-19T14:37:17;5.88;;;4.32;;
20657;SDS011;10488;50.846;4.078;2023-04-19T14:39:43;4.95;;;2.92;;
20657;SDS011;10488;50.846;4.078;2023-04-19T14:42:10;6.53;;;2.80;;
20657;SDS011;10488;50.846;4.078;2023-04-19T14:44:36;7.20;;;3.67;;